This is the latest recevied weather packets stored in our database for station/object KI5RKU-09. If no packets are shown the sender has not sent any weather packets the latest 10 day(s).
| Time | Temp. | Humidity | Pressure | Rain* | Wind** | Luminosity | Snow |
|---|---|---|---|---|---|---|---|
| 1776909640 | 22.78° C | 79% | 1013.3 hPa | 0.25 mm | - | 0 W/m² | - |
| 1776909329 | 22.78° C | 78% | 1013.3 hPa | 0.25 mm | - | 0 W/m² | - |
| 1776906948 | 22.78° C | 79% | 1013 hPa | 0 mm | - | 0 W/m² | - |
| 1776905428 | 23.33° C | 78% | 1013 hPa | 0 mm | - | 0 W/m² | - |
| 1776904527 | 23.33° C | 78% | 1013.1 hPa | 0 mm | - | 9 W/m² | - |
| 1776903627 | 23.89° C | 77% | 1013.1 hPa | 0 mm | - | 32 W/m² | - |
| 1776902442 | 23.89° C | 76% | 1013.4 hPa | 0 mm | - | 63 W/m² | - |
| 1776899747 | 24.44° C | 75% | 1013.7 hPa | 0 mm | - | 320 W/m² | - |
| 1776898852 | 24.44° C | 75% | 1013.8 hPa | 0 mm | - | 109 W/m² | - |
| 1776897942 | 23.89° C | 75% | 1013.8 hPa | 0 mm | - | 39 W/m² | - |
| 1776895832 | 23.89° C | 76% | 1014.2 hPa | 0 mm | - | 25 W/m² | - |
| 1776894626 | 23.33° C | 79% | 1014.3 hPa | 0 mm | - | 640 W/m² | - |
| 1776894341 | 22.78° C | 80% | 1014.5 hPa | 0 mm | - | 107 W/m² | - |
| 1776893128 | 22.78° C | 82% | 1014.9 hPa | 0 mm | - | 84 W/m² | - |
| 1776892548 | 22.78° C | 81% | 1015.1 hPa | 0 mm | - | 58 W/m² | - |
| 1776889526 | 21.11° C | 85% | 1016.2 hPa | 0 mm | - | 91 W/m² | - |
| 1776885340 | 20° C | 87% | 1017.2 hPa | 0.25 mm | - | 53 W/m² | - |
| 1776882928 | 20° C | 86% | 1017.6 hPa | 0 mm | - | 60 W/m² | - |
| 1776882643 | 20° C | 86% | 1017.7 hPa | 0 mm | - | 77 W/m² | - |
| 1776881129 | 19.44° C | 88% | 1018 hPa | 0 mm | - | 84 W/m² | - |
| 1776880228 | 19.44° C | 90% | 1018 hPa | 0 mm | - | 118 W/m² | - |
| 1776879327 | 18.33° C | 91% | 1018.3 hPa | 0 mm | - | 123 W/m² | - |
| 1776878728 | 18.33° C | 92% | 1018.5 hPa | 0 mm | - | 104 W/m² | - |
| 1776878428 | 18.33° C | 93% | 1018.5 hPa | 0 mm | - | 93 W/m² | - |
| 1776877528 | 17.78° C | 93% | 1018.8 hPa | 0 mm | - | 113 W/m² | - |
* Rain latest hour (hover to see other rain measurements)
** Current wind speed in m/s (hover to see current wind gust speed)